Time;durP1;ratioP1;P1;durP2;ratioP2;P2;SDS_P1;SDS_P2;PMS_P1;PMS_P2;Temp;Humidity;BMP_temperature;BMP_pressure;BME280_temperature;BME280_humidity;BME280_pressure;Samples;Min_cycle;Max_cycle;Signal;HPM_P1;HPM_P2
2023/05/29 00:02:08;;;;;;;12.73;2.38;;;10.50;99.90;;;;;;5013392;28;20030;-70
2023/05/29 00:04:33;;;;;;;11.13;2.60;;;10.40;99.90;;;;;;5014970;28;20525;-70
2023/05/29 00:06:59;;;;;;;14.00;3.97;;;10.50;99.90;;;;;;5013442;28;20046;-70
2023/05/29 00:09:25;;;;;;;12.55;2.58;;;10.40;99.90;;;;;;5013554;28;20073;-70
2023/05/29 00:11:52;;;;;;;16.83;2.40;;;10.40;99.90;;;;;;5014732;28;20046;-70
2023/05/29 00:14:22;;;;;;;17.23;2.97;;;10.40;99.90;;;;;;5014771;28;20049;-70
2023/05/29 00:16:48;;;;;;;13.00;2.55;;;10.40;99.90;;;;;;5014563;28;20088;-70
2023/05/29 00:19:16;;;;;;;14.20;3.10;;;10.40;99.90;;;;;;5014422;28;20042;-70
2023/05/29 00:21:42;;;;;;;19.33;2.30;;;10.40;99.90;;;;;;5013441;28;20049;-70
2023/05/29 00:24:08;;;;;;;11.15;2.38;;;10.40;99.90;;;;;;5014494;28;20046;-70
2023/05/29 00:26:34;;;;;;;14.68;2.13;;;10.40;99.90;;;;;;5014119;28;20064;-70
2023/05/29 00:28:59;;;;;;;15.73;3.15;;;10.40;99.90;;;;;;5014273;28;20034;-70
2023/05/29 00:31:25;;;;;;;19.52;3.65;;;10.40;99.90;;;;;;5012936;28;20093;-70
2023/05/29 00:33:51;;;;;;;8.38;2.38;;;10.40;99.90;;;;;;5014031;28;20088;-69
2023/05/29 00:36:16;;;;;;;10.60;2.33;;;10.30;99.90;;;;;;5014264;28;20069;-70
2023/05/29 00:38:42;;;;;;;10.82;3.22;;;10.30;99.90;;;;;;5014285;28;20038;-70
2023/05/29 00:41:12;;;;;;;12.60;2.63;;;10.30;99.90;;;;;;5014354;28;20053;-70
2023/05/29 00:43:38;;;;;;;11.60;2.85;;;10.30;99.90;;;;;;5014057;28;20046;-70
2023/05/29 00:46:04;;;;;;;11.18;3.08;;;10.20;99.90;;;;;;5013975;28;20052;-70
2023/05/29 00:48:30;;;;;;;12.20;2.45;;;10.20;99.90;;;;;;5013708;28;20049;-69
2023/05/29 00:50:55;;;;;;;13.07;2.38;;;10.30;99.90;;;;;;5013973;28;20038;-69
2023/05/29 00:53:22;;;;;;;15.77;2.58;;;10.30;99.90;;;;;;5014044;28;20046;-69
2023/05/29 00:55:48;;;;;;;8.23;2.20;;;10.30;99.90;;;;;;5013879;28;20117;-70
2023/05/29 00:58:14;;;;;;;16.30;2.95;;;10.20;99.90;;;;;;5013848;28;20073;-70
2023/05/29 01:00:40;;;;;;;10.27;2.33;;;10.20;99.90;;;;;;5013831;28;20046;-70
2023/05/29 01:03:07;;;;;;;14.73;2.75;;;10.20;99.90;;;;;;5013689;28;20049;-69
2023/05/29 01:05:35;;;;;;;17.38;3.45;;;10.10;99.90;;;;;;5013987;28;20037;-69
2023/05/29 01:08:02;;;;;;;16.38;2.80;;;10.10;99.90;;;;;;5013030;28;20053;-69
2023/05/29 01:10:28;;;;;;;8.50;2.35;;;10.10;99.90;;;;;;5012432;28;20045;-69
2023/05/29 01:13:05;;;;;;;13.02;3.50;;;10.20;99.90;;;;;;5013343;28;20674;-70
2023/05/29 01:15:53;;;;;;;12.68;2.90;;;10.20;99.90;;;;;;5013522;28;20038;-70
2023/05/29 01:18:39;;;;;;;10.18;2.50;;;10.10;99.90;;;;;;5013552;28;20044;-70
2023/05/29 01:21:20;;;;;;;14.88;3.25;;;10.10;99.90;;;;;;5013581;28;20045;-70
2023/05/29 01:24:25;;;;;;;14.68;4.53;;;10.10;99.90;;;;;;5013318;28;20065;-69
2023/05/29 01:27:11;;;;;;;15.70;2.70;;;10.10;99.90;;;;;;5013333;28;20141;-69
2023/05/29 01:29:40;;;;;;;12.23;2.50;;;10.10;99.90;;;;;;5012501;28;20111;-70
2023/05/29 01:32:06;;;;;;;13.75;3.05;;;10.00;99.90;;;;;;5013167;28;20045;-70
2023/05/29 01:34:32;;;;;;;14.05;3.00;;;10.10;99.90;;;;;;5013455;28;20042;-70
2023/05/29 01:36:57;;;;;;;9.45;2.70;;;10.00;99.90;;;;;;5013248;28;20046;-70
2023/05/29 01:39:24;;;;;;;11.32;2.42;;;10.00;99.90;;;;;;5013112;28;20034;-70
2023/05/29 01:41:50;;;;;;;13.73;2.70;;;10.10;99.90;;;;;;5013161;28;20077;-70
2023/05/29 01:44:17;;;;;;;12.80;3.13;;;10.00;99.90;;;;;;5012809;28;20038;-69
2023/05/29 01:46:43;;;;;;;11.38;2.75;;;10.10;99.90;;;;;;5012846;28;20124;-70
2023/05/29 01:49:11;;;;;;;10.18;3.08;;;10.20;99.90;;;;;;5011775;28;20054;-70
2023/05/29 01:51:37;;;;;;;13.60;2.55;;;10.10;99.90;;;;;;5012920;28;20064;-70
2023/05/29 01:54:03;;;;;;;11.80;3.05;;;10.10;99.90;;;;;;5010264;28;20042;-69
2023/05/29 01:56:30;;;;;;;8.77;2.40;;;10.10;99.90;;;;;;5012048;28;20534;-70
2023/05/29 01:58:57;;;;;;;10.05;2.25;;;10.10;99.90;;;;;;5011262;28;20063;-70
2023/05/29 02:01:23;;;;;;;10.40;2.38;;;10.20;99.90;;;;;;5012341;28;20041;-70
2023/05/29 02:03:49;;;;;;;15.27;3.22;;;10.20;99.90;;;;;;5012789;28;20085;-69
2023/05/29 02:06:15;;;;;;;13.25;2.35;;;10.30;99.90;;;;;;5012610;28;20053;-70
2023/05/29 02:08:40;;;;;;;10.55;2.67;;;10.20;99.90;;;;;;5012513;28;20034;-70
2023/05/29 02:11:06;;;;;;;13.30;2.53;;;10.20;99.90;;;;;;5012730;28;20042;-69
2023/05/29 02:13:32;;;;;;;12.35;3.25;;;10.20;99.90;;;;;;5012263;28;20111;-70
2023/05/29 02:15:57;;;;;;;17.25;3.45;;;10.30;99.90;;;;;;5012298;28;20445;-70
2023/05/29 02:18:23;;;;;;;15.55;3.42;;;10.30;99.90;;;;;;5012572;28;20525;-70
2023/05/29 02:20:49;;;;;;;12.57;2.78;;;10.30;99.90;;;;;;5012588;28;20041;-70
2023/05/29 02:23:15;;;;;;;15.02;2.67;;;10.20;99.90;;;;;;5012157;28;20033;-70
2023/05/29 02:25:41;;;;;;;17.17;5.47;;;10.20;99.90;;;;;;5010914;28;20069;-70
2023/05/29 02:28:07;;;;;;;11.48;2.67;;;10.20;99.90;;;;;;5012168;28;20089;-70
2023/05/29 02:30:33;;;;;;;10.73;3.38;;;10.20;99.90;;;;;;5011026;28;20073;-70
2023/05/29 02:32:58;;;;;;;13.68;3.13;;;10.20;99.90;;;;;;5010972;28;20042;-69
2023/05/29 02:35:24;;;;;;;9.15;2.83;;;10.20;99.90;;;;;;5010990;28;20084;-70
2023/05/29 02:37:50;;;;;;;11.10;3.00;;;10.10;99.90;;;;;;5012136;28;20085;-70
2023/05/29 02:40:16;;;;;;;9.60;2.40;;;10.10;99.90;;;;;;5011379;28;20559;-70
2023/05/29 02:42:42;;;;;;;14.95;2.50;;;10.10;99.90;;;;;;5011978;28;20053;-70
2023/05/29 02:45:08;;;;;;;9.43;2.95;;;10.10;99.90;;;;;;5011996;28;20037;-70
2023/05/29 02:47:34;;;;;;;19.02;3.53;;;10.00;99.90;;;;;;5011921;28;20088;-70
2023/05/29 02:50:00;;;;;;;11.32;3.30;;;10.10;99.90;;;;;;5011931;28;20045;-69
2023/05/29 02:52:27;;;;;;;11.23;2.38;;;10.10;99.90;;;;;;5010719;28;20030;-69
2023/05/29 02:54:54;;;;;;;9.48;2.63;;;10.10;99.90;;;;;;5012047;28;20121;-69
2023/05/29 02:57:20;;;;;;;14.43;2.70;;;10.00;99.90;;;;;;5011391;28;20050;-69
2023/05/29 02:59:45;;;;;;;6.93;2.20;;;10.00;99.90;;;;;;5010390;28;20057;-70
2023/05/29 03:02:11;;;;;;;13.18;3.10;;;10.00;99.90;;;;;;5011188;28;20410;-70
2023/05/29 03:04:37;;;;;;;7.55;2.25;;;10.10;99.90;;;;;;5011992;28;20049;-69
2023/05/29 03:07:03;;;;;;;8.82;2.20;;;10.10;99.90;;;;;;5011752;28;20092;-70
2023/05/29 03:09:28;;;;;;;12.35;2.30;;;10.10;99.90;;;;;;5010367;28;20410;-70
2023/05/29 03:11:54;;;;;;;11.00;2.50;;;10.00;99.90;;;;;;5011627;28;20041;-69
2023/05/29 03:14:21;;;;;;;11.15;3.55;;;10.00;99.90;;;;;;5011678;28;20556;-70
2023/05/29 03:16:47;;;;;;;10.40;2.28;;;10.00;99.90;;;;;;5011853;28;20057;-70
2023/05/29 03:19:13;;;;;;;13.88;3.22;;;10.00;99.90;;;;;;5010353;28;20042;-70
2023/05/29 03:21:38;;;;;;;11.50;2.40;;;10.00;99.90;;;;;;5011672;28;20052;-70
2023/05/29 03:24:05;;;;;;;9.32;2.45;;;10.10;99.90;;;;;;5011617;28;20027;-70
2023/05/29 03:26:31;;;;;;;10.65;2.92;;;10.10;99.90;;;;;;5011479;28;20085;-70
2023/05/29 03:28:56;;;;;;;10.30;2.60;;;10.10;99.90;;;;;;5011512;28;20088;-69
2023/05/29 03:31:22;;;;;;;9.45;2.22;;;10.10;99.90;;;;;;5011795;28;20406;-70
2023/05/29 03:33:49;;;;;;;10.35;2.42;;;10.00;99.90;;;;;;5011733;28;20492;-70
2023/05/29 03:36:16;;;;;;;15.48;2.83;;;10.00;99.90;;;;;;5011320;28;20401;-69
2023/05/29 03:38:43;;;;;;;13.38;2.85;;;10.10;99.90;;;;;;5011278;28;20034;-70
2023/05/29 03:41:08;;;;;;;10.05;2.95;;;10.10;99.90;;;;;;5011545;28;20433;-69
2023/05/29 03:43:34;;;;;;;8.20;2.70;;;10.00;99.90;;;;;;5011537;28;20061;-70
2023/05/29 03:46:00;;;;;;;12.57;3.40;;;10.10;99.90;;;;;;5011570;28;20502;-70
2023/05/29 03:48:25;;;;;;;12.88;2.95;;;10.10;99.90;;;;;;5011664;28;20100;-70
2023/05/29 03:50:51;;;;;;;6.72;1.92;;;10.10;99.90;;;;;;5011614;28;20464;-69
2023/05/29 03:53:16;;;;;;;16.20;3.55;;;10.10;99.90;;;;;;5014148;28;20403;-69
2023/05/29 03:55:42;;;;;;;10.23;2.80;;;10.10;99.90;;;;;;5014843;28;20041;-69
2023/05/29 03:58:07;;;;;;;16.65;2.90;;;10.20;99.90;;;;;;5014799;28;20034;-69
2023/05/29 04:00:33;;;;;;;10.00;2.53;;;10.20;99.90;;;;;;5015192;28;20042;-69
2023/05/29 04:02:58;;;;;;;11.45;2.80;;;10.30;99.90;;;;;;5014397;28;20077;-69
2023/05/29 04:05:25;;;;;;;15.63;2.63;;;10.30;99.90;;;;;;5014952;28;20117;-69
2023/05/29 04:07:51;;;;;;;12.30;2.22;;;10.30;99.90;;;;;;5014482;28;20085;-69
2023/05/29 04:10:16;;;;;;;11.48;2.92;;;10.20;99.90;;;;;;5014620;28;20042;-69
2023/05/29 04:12:42;;;;;;;8.90;2.03;;;10.20;99.90;;;;;;5014386;28;20034;-69
2023/05/29 04:15:08;;;;;;;8.45;2.30;;;10.30;99.90;;;;;;5014963;28;20095;-70
2023/05/29 04:17:34;;;;;;;10.15;2.85;;;10.30;99.90;;;;;;5014663;28;20116;-69
2023/05/29 04:20:05;;;;;;;7.07;3.17;;;10.30;99.90;;;;;;5014476;28;20117;-70
2023/05/29 04:22:31;;;;;;;11.80;3.10;;;10.40;99.90;;;;;;5014390;28;20038;-70
2023/05/29 04:24:57;;;;;;;6.45;2.00;;;10.50;99.90;;;;;;5014501;28;20168;-70
2023/05/29 04:27:22;;;;;;;13.20;3.20;;;10.50;99.90;;;;;;5014252;28;20045;-70
2023/05/29 04:29:48;;;;;;;9.57;2.08;;;10.50;99.90;;;;;;5014142;28;20037;-70
2023/05/29 04:32:13;;;;;;;12.48;3.10;;;10.50;99.90;;;;;;5014517;28;20038;-70
2023/05/29 04:34:39;;;;;;;12.35;3.03;;;10.50;99.90;;;;;;5014446;28;20044;-70
2023/05/29 04:37:05;;;;;;;11.85;2.90;;;10.60;99.90;;;;;;5014150;28;20129;-70
2023/05/29 04:39:31;;;;;;;11.55;3.65;;;10.60;99.90;;;;;;5014050;28;20038;-70
2023/05/29 04:42:00;;;;;;;16.80;3.15;;;10.60;99.90;;;;;;5014103;28;20045;-70
2023/05/29 04:44:26;;;;;;;9.50;2.35;;;10.60;99.90;;;;;;5012914;28;20038;-70
2023/05/29 04:46:52;;;;;;;12.70;3.95;;;10.60;99.90;;;;;;5013878;28;20038;-70
2023/05/29 04:49:18;;;;;;;12.65;2.53;;;10.60;99.90;;;;;;5014062;28;20065;-70
2023/05/29 04:51:44;;;;;;;14.90;2.85;;;10.60;99.90;;;;;;5012595;28;20077;-70
2023/05/29 04:54:11;;;;;;;14.68;2.40;;;10.60;99.90;;;;;;5013915;28;20469;-70
2023/05/29 04:56:37;;;;;;;7.80;2.40;;;10.70;99.90;;;;;;5012547;28;20494;-70
2023/05/29 04:59:03;;;;;;;9.40;2.22;;;10.70;99.90;;;;;;5014007;28;20125;-70
2023/05/29 05:01:28;;;;;;;15.20;2.65;;;10.70;99.90;;;;;;5013940;28;20509;-70
2023/05/29 05:03:57;;;;;;;16.50;3.50;;;10.70;99.90;;;;;;5012991;28;20042;-70
2023/05/29 05:06:25;;;;;;;10.15;2.60;;;10.70;99.90;;;;;;5013632;28;20046;-70
2023/05/29 05:08:51;;;;;;;8.30;2.72;;;10.80;99.90;;;;;;5013515;28;20041;-70
2023/05/29 05:11:17;;;;;;;16.65;2.72;;;10.80;99.90;;;;;;5013728;28;20030;-70
2023/05/29 05:13:43;;;;;;;12.90;2.78;;;10.90;99.90;;;;;;5013869;28;20409;-69
2023/05/29 05:16:09;;;;;;;7.80;2.42;;;10.90;99.90;;;;;;5012243;28;20038;-69
2023/05/29 05:18:35;;;;;;;10.68;2.15;;;11.00;99.90;;;;;;5013489;28;20484;-69
2023/05/29 05:21:03;;;;;;;9.02;2.45;;;10.90;99.90;;;;;;5013507;28;20124;-69
2023/05/29 05:23:28;;;;;;;13.70;2.55;;;11.00;99.90;;;;;;5013190;28;20138;-69
2023/05/29 05:25:54;;;;;;;16.65;3.88;;;11.00;99.90;;;;;;5012331;28;20538;-69
2023/05/29 05:28:19;;;;;;;16.25;2.80;;;11.00;99.90;;;;;;5013261;28;20045;-69
2023/05/29 05:30:45;;;;;;;10.85;3.03;;;11.10;99.90;;;;;;5013441;28;20453;-69
2023/05/29 05:33:11;;;;;;;13.30;2.60;;;11.20;99.90;;;;;;5013084;28;20405;-69
2023/05/29 05:35:36;;;;;;;13.73;2.38;;;11.40;99.90;;;;;;5013248;28;20092;-69
2023/05/29 05:38:02;;;;;;;11.82;3.45;;;11.70;99.90;;;;;;5012849;28;20516;-69
2023/05/29 05:40:28;;;;;;;13.20;3.20;;;11.80;99.90;;;;;;5013088;28;20405;-69
2023/05/29 05:42:53;;;;;;;12.57;2.53;;;11.80;99.90;;;;;;5012809;28;20049;-69
2023/05/29 05:45:22;;;;;;;8.90;2.58;;;11.80;99.90;;;;;;5013152;28;20044;-69
2023/05/29 05:47:48;;;;;;;10.02;2.90;;;11.80;99.90;;;;;;5012574;28;20046;-69
2023/05/29 05:50:13;;;;;;;11.90;3.22;;;11.90;99.90;;;;;;5012905;28;20069;-69
2023/05/29 05:52:39;;;;;;;14.23;3.13;;;11.90;99.90;;;;;;5012625;28;20041;-69
2023/05/29 05:55:05;;;;;;;14.13;3.60;;;11.90;99.90;;;;;;5011777;28;20124;-69
2023/05/29 05:57:32;;;;;;;11.20;2.90;;;12.00;99.90;;;;;;5012650;28;20509;-69
2023/05/29 05:59:59;;;;;;;12.15;3.50;;;12.00;99.90;;;;;;5011456;28;20058;-69
2023/05/29 06:02:25;;;;;;;15.48;3.65;;;12.20;99.90;;;;;;5012495;28;20509;-69
2023/05/29 06:04:51;;;;;;;14.70;3.55;;;12.10;99.90;;;;;;5011663;28;20056;-69
2023/05/29 06:07:17;;;;;;;16.95;3.90;;;12.40;99.90;;;;;;5012059;28;20560;-69
2023/05/29 06:09:43;;;;;;;11.10;2.67;;;12.20;99.90;;;;;;5012312;28;20117;-69
2023/05/29 06:12:09;;;;;;;13.27;2.90;;;12.40;99.90;;;;;;5011161;28;20042;-69
2023/05/29 06:14:35;;;;;;;13.55;2.95;;;12.40;99.90;;;;;;5012505;28;20034;-69
2023/05/29 06:17:01;;;;;;;13.88;3.97;;;12.40;99.90;;;;;;5012136;28;20045;-69
2023/05/29 06:19:27;;;;;;;13.07;3.55;;;12.30;99.90;;;;;;5011207;28;20044;-69
2023/05/29 06:21:52;;;;;;;10.35;2.83;;;12.30;99.90;;;;;;5012171;28;20128;-69
2023/05/29 06:24:18;;;;;;;11.05;3.35;;;12.40;99.90;;;;;;5012557;28;20514;-69
2023/05/29 06:26:43;;;;;;;11.20;3.30;;;12.20;99.90;;;;;;5012332;28;20421;-69
2023/05/29 06:29:09;;;;;;;16.33;3.83;;;12.30;99.90;;;;;;5012192;28;20445;-69
2023/05/29 06:31:35;;;;;;;10.02;3.25;;;12.70;99.90;;;;;;5012251;28;20119;-69
2023/05/29 06:34:00;;;;;;;14.70;3.03;;;12.80;99.90;;;;;;5012205;28;20053;-69
2023/05/29 06:36:26;;;;;;;11.85;3.22;;;12.90;99.90;;;;;;5011963;28;20460;-70
2023/05/29 06:38:52;;;;;;;14.50;3.33;;;12.90;99.90;;;;;;5012152;28;20046;-69
2023/05/29 06:41:18;;;;;;;15.55;3.50;;;12.90;99.90;;;;;;5012200;28;20044;-69
2023/05/29 06:43:43;;;;;;;14.75;3.30;;;12.80;99.90;;;;;;5011067;28;20410;-69
2023/05/29 06:46:10;;;;;;;17.58;3.78;;;13.00;99.90;;;;;;5012025;28;20045;-69
2023/05/29 06:48:36;;;;;;;16.20;3.20;;;13.00;99.90;;;;;;5011893;28;20038;-69
2023/05/29 06:51:08;;;;;;;11.90;3.10;;;13.10;99.90;;;;;;5011617;28;20084;-69
2023/05/29 06:53:37;;;;;;;12.75;3.65;;;13.10;99.90;;;;;;5011942;28;20128;-70
2023/05/29 06:56:02;;;;;;;15.82;3.75;;;13.20;99.90;;;;;;5011936;28;20037;-70
2023/05/29 06:58:30;;;;;;;21.67;4.65;;;13.00;99.90;;;;;;5012108;28;20033;-69
2023/05/29 07:00:55;;;;;;;17.17;4.82;;;12.80;99.90;;;;;;5011522;28;20121;-70
2023/05/29 07:03:21;;;;;;;16.00;3.28;;;12.80;99.90;;;;;;5011685;28;20172;-70
2023/05/29 07:05:47;;;;;;;13.40;3.00;;;12.90;99.90;;;;;;5011723;28;20053;-69
2023/05/29 07:08:13;;;;;;;18.60;3.22;;;12.80;99.90;;;;;;5011837;28;20034;-69
2023/05/29 07:10:38;;;;;;;16.02;3.90;;;12.90;99.90;;;;;;5011936;28;20064;-70
2023/05/29 07:13:06;;;;;;;15.07;3.28;;;13.00;99.90;;;;;;5010538;28;20406;-69
2023/05/29 07:15:32;;;;;;;15.82;3.28;;;13.00;99.90;;;;;;5009718;28;20042;-70
2023/05/29 07:17:57;;;;;;;16.23;3.33;;;13.40;99.90;;;;;;5008194;28;20125;-69
2023/05/29 07:20:23;;;;;;;19.70;3.78;;;13.30;99.90;;;;;;5003323;28;20046;-70
2023/05/29 07:22:48;;;;;;;13.45;3.33;;;13.40;99.90;;;;;;5011044;28;20049;-70
2023/05/29 07:25:14;;;;;;;16.45;4.28;;;13.30;99.90;;;;;;5011266;28;20092;-70
2023/05/29 07:27:40;;;;;;;18.85;3.35;;;13.50;99.90;;;;;;5012928;28;20085;-69
2023/05/29 07:30:06;;;;;;;16.98;3.55;;;13.80;99.90;;;;;;5015045;28;20054;-70
2023/05/29 07:32:32;;;;;;;14.77;3.90;;;13.80;99.10;;;;;;5014842;28;20502;-70
2023/05/29 07:34:58;;;;;;;13.68;3.42;;;14.00;98.20;;;;;;5012153;28;20038;-69
2023/05/29 07:37:23;;;;;;;12.00;3.35;;;14.20;97.60;;;;;;5015128;28;20406;-70
2023/05/29 07:39:49;;;;;;;15.23;4.35;;;14.50;97.50;;;;;;5014973;28;20041;-70
2023/05/29 07:42:14;;;;;;;14.50;3.38;;;14.60;97.00;;;;;;5015365;28;20095;-69
2023/05/29 07:44:43;;;;;;;12.50;3.13;;;14.70;96.70;;;;;;5015310;28;20077;-70
2023/05/29 07:47:09;;;;;;;13.38;3.38;;;14.90;95.90;;;;;;5014117;28;20042;-70
2023/05/29 07:49:38;;;;;;;23.38;4.38;;;14.80;95.30;;;;;;5015295;28;20088;-69
2023/05/29 07:52:04;;;;;;;25.52;4.40;;;14.80;95.20;;;;;;5015125;28;20452;-69
2023/05/29 07:54:32;;;;;;;14.80;4.78;;;14.80;95.90;;;;;;5015212;28;20113;-69
2023/05/29 07:57:02;;;;;;;19.50;4.32;;;15.00;95.40;;;;;;5030319;28;20041;-69
2023/05/29 07:59:29;;;;;;;14.05;3.85;;;15.30;95.70;;;;;;5015002;28;20057;-69
2023/05/29 08:01:57;;;;;;;17.67;3.90;;;15.50;95.10;;;;;;5013585;28;20045;-69
2023/05/29 08:04:24;;;;;;;15.93;4.07;;;15.30;94.60;;;;;;5014503;28;20069;-69
2023/05/29 08:06:50;;;;;;;18.88;4.03;;;15.60;94.50;;;;;;5029702;28;20041;-69
2023/05/29 08:09:17;;;;;;;15.73;3.78;;;15.70;93.50;;;;;;5013457;28;20045;-70
2023/05/29 08:11:45;;;;;;;12.88;2.95;;;15.70;93.60;;;;;;5014709;28;20064;-69
2023/05/29 08:14:11;;;;;;;16.05;3.72;;;15.30;94.40;;;;;;5014654;28;20041;-69
2023/05/29 08:16:36;;;;;;;17.80;4.18;;;15.20;94.40;;;;;;5014430;28;20387;-70
2023/05/29 08:19:02;;;;;;;12.05;3.17;;;15.30;94.50;;;;;;5014704;28;20045;-69
2023/05/29 08:21:27;;;;;;;13.85;3.15;;;15.40;94.40;;;;;;5014557;28;20103;-69
2023/05/29 08:23:53;;;;;;;11.07;2.95;;;15.50;94.30;;;;;;5014531;28;20034;-70
2023/05/29 08:26:18;;;;;;;14.90;3.78;;;15.50;94.50;;;;;;5014322;28;20042;-70
2023/05/29 08:28:44;;;;;;;16.52;3.92;;;15.60;94.60;;;;;;5014364;28;20084;-69
2023/05/29 08:31:09;;;;;;;12.73;3.08;;;15.30;94.70;;;;;;5014357;28;20049;-69
2023/05/29 08:33:36;;;;;;;12.68;3.47;;;15.20;94.80;;;;;;5014215;28;20042;-70
2023/05/29 08:36:02;;;;;;;16.85;4.35;;;15.20;94.50;;;;;;5014319;28;20049;-70
2023/05/29 08:38:27;;;;;;;17.33;3.80;;;15.00;95.10;;;;;;5012950;28;20038;-70
2023/05/29 08:40:56;;;;;;;12.85;3.90;;;14.60;95.60;;;;;;5014436;28;20034;-69
2023/05/29 08:43:22;;;;;;;14.65;3.40;;;14.70;96.20;;;;;;5014104;28;20042;-69
2023/05/29 08:45:53;;;;;;;13.10;3.28;;;15.10;96.00;;;;;;5013966;28;20057;-69
2023/05/29 08:48:26;;;;;;;11.13;3.50;;;15.00;95.30;;;;;;5014044;28;20054;-70
2023/05/29 08:50:57;;;;;;;10.60;3.17;;;14.60;95.40;;;;;;5014290;28;20092;-70
2023/05/29 08:53:23;;;;;;;10.77;3.35;;;14.50;95.70;;;;;;5013990;28;20053;-70
2023/05/29 08:55:58;;;;;;;8.55;2.97;;;14.20;96.00;;;;;;5013917;28;20041;-70
2023/05/29 08:58:25;;;;;;;15.43;3.40;;;14.50;95.70;;;;;;5013822;28;20652;-70
2023/05/29 09:00:51;;;;;;;10.68;3.53;;;14.60;96.00;;;;;;5013965;28;20046;-69
2023/05/29 09:03:17;;;;;;;17.65;3.75;;;14.70;96.10;;;;;;5013799;28;20061;-69
2023/05/29 09:05:44;;;;;;;11.88;4.18;;;14.70;96.50;;;;;;5013712;28;20473;-69
2023/05/29 09:08:11;;;;;;;14.13;3.38;;;14.90;96.70;;;;;;5013547;28;20042;-70
2023/05/29 09:10:44;;;;;;;17.27;3.67;;;14.90;96.20;;;;;;5013559;28;20526;-69
2023/05/29 09:13:11;;;;;;;15.60;3.23;;;15.00;96.00;;;;;;5013536;28;20038;-70
2023/05/29 09:15:39;;;;;;;11.48;4.15;;;15.00;96.00;;;;;;5013705;28;20092;-70
2023/05/29 09:18:05;;;;;;;15.23;3.80;;;14.90;95.90;;;;;;5013457;28;20046;-70
2023/05/29 09:20:31;;;;;;;17.55;3.85;;;15.10;95.80;;;;;;5013565;28;20049;-69
2023/05/29 09:22:58;;;;;;;18.52;4.25;;;14.80;96.00;;;;;;5012324;28;20053;-69
2023/05/29 09:25:29;;;;;;;18.35;5.00;;;14.70;96.00;;;;;;5013606;28;20046;-70
2023/05/29 09:27:57;;;;;;;17.45;3.95;;;14.80;95.50;;;;;;5013050;28;20046;-69
2023/05/29 09:30:39;;;;;;;16.83;3.53;;;15.10;95.60;;;;;;5013433;28;20096;-70
2023/05/29 09:33:13;;;;;;;14.77;3.25;;;14.90;95.60;;;;;;5013148;28;20121;-69
2023/05/29 09:35:40;;;;;;;13.07;3.92;;;15.10;95.20;;;;;;5013027;28;20036;-69
2023/05/29 09:38:08;;;;;;;13.48;3.30;;;15.10;95.80;;;;;;5013126;28;20045;-69
2023/05/29 09:40:36;;;;;;;16.10;3.47;;;15.20;95.60;;;;;;5013329;28;20456;-69
2023/05/29 09:43:20;;;;;;;15.13;3.75;;;14.80;96.00;;;;;;5012971;28;20120;-69
2023/05/29 09:45:48;;;;;;;12.98;3.80;;;15.20;95.70;;;;;;5012906;28;20053;-69
2023/05/29 09:48:16;;;;;;;13.30;4.25;;;15.20;95.40;;;;;;5012666;28;20042;-70
2023/05/29 09:50:44;;;;;;;17.27;4.13;;;15.40;95.30;;;;;;5012609;28;20049;-69
2023/05/29 09:53:21;;;;;;;14.57;3.55;;;15.50;95.10;;;;;;5012730;28;20524;-68
2023/05/29 09:55:50;;;;;;;17.08;4.20;;;15.60;94.70;;;;;;5012877;28;20056;-69
2023/05/29 09:58:17;;;;;;;19.38;3.85;;;15.80;94.60;;;;;;5011902;28;20041;-68
2023/05/29 10:00:43;;;;;;;12.00;3.80;;;15.80;92.60;;;;;;5012114;28;20052;-69
2023/05/29 10:03:10;;;;;;;12.98;3.40;;;15.70;92.70;;;;;;5012350;28;20416;-69
2023/05/29 10:05:37;;;;;;;13.45;3.25;;;15.70;93.00;;;;;;5012418;28;20044;-69
2023/05/29 10:08:06;;;;;;;13.80;2.75;;;15.70;93.10;;;;;;5012020;28;20038;-69
2023/05/29 10:10:33;;;;;;;12.90;3.10;;;15.30;93.70;;;;;;5012716;28;20038;-69
2023/05/29 10:13:03;;;;;;;17.98;3.63;;;15.30;93.30;;;;;;5012283;28;20116;-69
2023/05/29 10:15:30;;;;;;;17.17;4.72;;;15.40;93.20;;;;;;5012667;28;20038;-69
2023/05/29 10:18:04;;;;;;;11.10;3.35;;;15.40;93.80;;;;;;5012416;28;20038;-70
2023/05/29 10:20:31;;;;;;;13.77;3.38;;;15.80;93.20;;;;;;5012522;28;20042;-69
2023/05/29 10:23:00;;;;;;;17.80;3.60;;;15.80;92.70;;;;;;5012344;28;20192;-69
2023/05/29 10:25:29;;;;;;;11.20;3.03;;;15.90;91.80;;;;;;5012384;28;20042;-69
2023/05/29 10:27:56;;;;;;;13.57;3.47;;;15.90;92.00;;;;;;5011965;28;20121;-69
2023/05/29 10:30:40;;;;;;;13.15;3.00;;;15.90;92.60;;;;;;5012258;28;20548;-68
2023/05/29 10:33:26;;;;;;;16.57;3.77;;;15.80;91.80;;;;;;5012151;28;20509;-70
2023/05/29 10:36:17;;;;;;;12.15;3.75;;;15.40;92.00;;;;;;5012096;28;20045;-69
2023/05/29 10:38:47;;;;;;;11.30;3.72;;;15.60;93.30;;;;;;5011081;28;20097;-69
2023/05/29 10:41:27;;;;;;;19.25;3.92;;;15.60;92.90;;;;;;5012212;28;20112;-69
2023/05/29 10:43:57;;;;;;;17.65;3.95;;;15.50;91.60;;;;;;5012251;28;20437;-69
2023/05/29 10:46:42;;;;;;;10.95;3.03;;;15.40;90.90;;;;;;5011783;28;20069;-69
2023/05/29 10:49:16;;;;;;;18.75;3.10;;;15.40;92.40;;;;;;5012055;28;20041;-69
2023/05/29 10:51:41;;;;;;;21.20;3.33;;;15.00;92.40;;;;;;5010708;28;20091;-70
2023/05/29 10:54:07;;;;;;;18.92;3.95;;;15.30;93.10;;;;;;5012304;28;20228;-69
2023/05/29 10:56:33;;;;;;;17.27;4.38;;;15.50;92.50;;;;;;5010561;28;20402;-69
2023/05/29 10:59:03;;;;;;;15.65;3.78;;;15.50;91.90;;;;;;5012416;28;20053;-70
2023/05/29 11:01:30;;;;;;;16.80;3.30;;;15.70;91.50;;;;;;5010883;28;20049;-70
2023/05/29 11:04:15;;;;;;;15.57;3.13;;;15.80;91.60;;;;;;5010299;28;20087;-70
2023/05/29 11:06:41;;;;;;;8.98;2.55;;;15.60;90.60;;;;;;5010868;28;20046;-70
2023/05/29 11:09:26;;;;;;;15.23;3.47;;;15.60;91.60;;;;;;5010045;28;20037;-70
2023/05/29 11:12:35;;;;;;;13.25;3.42;;;15.70;92.50;;;;;;5008577;28;20045;-71
2023/05/29 11:15:06;;;;;;;14.68;3.30;;;15.80;92.60;;;;;;5011685;28;20038;-70
2023/05/29 11:17:43;;;;;;;15.48;3.35;;;15.60;93.20;;;;;;5011726;28;20050;-70
2023/05/29 11:20:41;;;;;;;15.27;3.05;;;15.70;92.20;;;;;;5011906;28;20107;-70
2023/05/29 11:23:08;;;;;;;14.40;3.60;;;15.60;91.90;;;;;;5011793;28;20095;-70
2023/05/29 11:25:37;;;;;;;11.23;3.00;;;15.70;92.40;;;;;;5011784;28;20046;-70
2023/05/29 11:28:08;;;;;;;17.02;3.97;;;15.60;92.00;;;;;;5011368;28;20121;-70
2023/05/29 11:30:44;;;;;;;14.13;3.67;;;15.30;92.30;;;;;;5010030;28;20045;-70
2023/05/29 11:33:25;;;;;;;12.15;3.10;;;15.50;93.00;;;;;;5010312;28;20117;-70
2023/05/29 11:36:00;;;;;;;11.23;2.72;;;15.40;92.40;;;;;;5011532;28;20034;-70
2023/05/29 11:38:26;;;;;;;10.70;3.03;;;15.20;92.90;;;;;;5011452;28;20046;-71
2023/05/29 11:40:54;;;;;;;18.83;3.45;;;14.90;93.50;;;;;;5011566;28;20497;-70
2023/05/29 11:43:20;;;;;;;12.35;2.70;;;15.00;94.00;;;;;;5011434;28;20133;-72
2023/05/29 11:45:45;;;;;;;19.17;4.47;;;15.00;93.90;;;;;;5011661;28;20077;-70
2023/05/29 11:48:11;;;;;;;15.50;3.90;;;15.20;94.30;;;;;;5011363;28;20034;-70
2023/05/29 11:50:37;;;;;;;14.32;3.08;;;15.30;93.50;;;;;;5011615;28;20049;-70
2023/05/29 11:53:05;;;;;;;11.65;3.00;;;15.10;92.90;;;;;;5011262;28;20038;-70
2023/05/29 11:55:31;;;;;;;14.65;2.53;;;15.20;93.30;;;;;;5011684;28;20041;-71
2023/05/29 11:57:58;;;;;;;17.30;3.15;;;15.10;93.10;;;;;;5011361;28;20413;-70
2023/05/29 12:00:25;;;;;;;19.17;3.22;;;15.30;93.40;;;;;;5011520;28;20049;-70
2023/05/29 12:02:51;;;;;;;15.40;3.35;;;15.40;92.80;;;;;;5011093;28;20042;-71
2023/05/29 12:05:20;;;;;;;12.57;2.67;;;15.40;93.00;;;;;;5011269;28;20520;-71
2023/05/29 12:07:53;;;;;;;9.52;2.83;;;15.40;92.50;;;;;;5010029;28;20041;-71
2023/05/29 12:10:21;;;;;;;14.77;3.78;;;15.40;93.00;;;;;;5010832;28;20085;-71
2023/05/29 12:12:55;;;;;;;16.85;3.65;;;15.50;93.20;;;;;;5010140;28;20042;-71
2023/05/29 12:15:21;;;;;;;9.90;2.75;;;15.30;92.90;;;;;;5011906;28;20030;-71
2023/05/29 12:17:49;;;;;;;14.65;3.05;;;15.40;92.40;;;;;;5012906;28;20060;-71
2023/05/29 12:20:15;;;;;;;9.45;3.10;;;15.40;91.80;;;;;;5014061;28;20469;-71
2023/05/29 12:22:42;;;;;;;14.50;3.00;;;15.40;91.40;;;;;;5011706;28;20387;-71
2023/05/29 12:25:14;;;;;;;11.73;2.55;;;15.60;89.80;;;;;;5014282;28;20041;-71
2023/05/29 12:27:42;;;;;;;14.18;2.88;;;15.60;90.40;;;;;;5011199;28;20034;-71
2023/05/29 12:30:10;;;;;;;18.88;4.38;;;15.60;90.80;;;;;;5014209;28;20494;-71
2023/05/29 12:32:40;;;;;;;12.77;3.67;;;15.70;90.80;;;;;;5014146;28;20045;-71
2023/05/29 12:35:26;;;;;;;11.50;2.55;;;15.80;90.00;;;;;;5013334;28;20444;-71
2023/05/29 12:37:56;;;;;;;14.13;2.72;;;15.70;87.60;;;;;;5014388;28;20037;-71
2023/05/29 12:40:23;;;;;;;9.73;2.88;;;15.80;90.00;;;;;;5014970;28;20053;-77
2023/05/29 12:42:56;;;;;;;12.85;2.92;;;15.70;90.30;;;;;;5016356;28;20042;-79